Archiv-/Tagesdaten

--Timestamp---	Temp	Chill	HIndex	Humid	Dewpt	Wind	HiWind	WindDir	Rain	Barom	Solar	ET	UV
--------------	----	-----	------	-----	-----	----	------	-------	----	-----	-----	--	--
20070921 00:05	7.7	7.7	7.7	87	5.6	0	0	135	0.00	1025.604	0	0.000	0
20070921 00:10	7.6	7.6	7.6	87	5.6	0	0	135	0.00	1025.638	0	0.000	0
20070921 00:15	7.6	7.6	7.6	87	5.6	0	2	135	0.00	1025.638	0	0.000	0
20070921 00:20	7.6	7.6	7.6	87	5.5	0	2	135	0.00	1025.672	0	0.000	0
20070921 00:25	7.4	7.4	7.4	88	5.6	0	0	135	0.00	1025.638	0	0.000	0
20070921 00:30	7.3	7.3	7.3	88	5.5	0	0	135	0.00	1025.740	0	0.000	0
20070921 00:35	7.2	7.2	7.2	88	5.4	0	2	135	0.00	1025.672	0	0.000	0
20070921 00:40	7.2	7.2	7.2	89	5.5	0	2	135	0.00	1025.638	0	0.000	0
20070921 00:45	7.2	7.2	7.2	88	5.4	0	2	135	0.00	1025.638	0	0.000	0
20070921 00:50	7.2	7.2	7.2	88	5.4	0	0	135	0.00	1025.604	0	0.000	0
20070921 00:55	7.2	7.2	7.2	89	5.5	0	2	135	0.00	1025.571	0	0.000	0
20070921 01:00	7.2	7.2	7.2	89	5.5	0	2	135	0.00	1025.503	0	0.000	0
20070921 01:05	7.2	7.2	7.2	88	5.4	0	2	135	0.00	1025.232	0	0.000	0
20070921 01:10	7.2	7.2	7.2	88	5.4	0	2	135	0.00	1025.198	0	0.000	0
20070921 01:15	7.2	7.2	7.2	88	5.4	0	3	135	0.00	1025.164	0	0.000	0
20070921 01:20	7.2	7.2	7.2	87	5.2	0	2	135	0.00	1025.130	0	0.000	0
20070921 01:25	7.2	7.2	7.2	87	5.2	0	5	180	0.00	1025.198	0	0.000	0
20070921 01:30	7.2	7.2	7.2	87	5.2	2	5	180	0.00	1025.164	0	0.000	0
20070921 01:35	7.2	7.2	7.2	87	5.1	0	6	180	0.00	1025.164	0	0.000	0
20070921 01:40	7.1	7.1	7.1	88	5.3	0	6	180	0.00	1025.130	0	0.000	0
20070921 01:45	7.1	7.1	7.1	88	5.2	0	3	180	0.00	1025.063	0	0.000	0
20070921 01:50	7.0	7.0	7.0	92	5.8	0	3	180	0.00	1025.029	0	0.000	0
20070921 01:55	6.9	6.9	6.9	88	5.1	0	5	180	0.00	1024.961	0	0.000	0
20070921 02:00	6.9	6.9	6.9	88	5.0	0	3	180	0.00	1025.063	0	0.000	0
20070921 02:05	6.8	6.8	6.8	88	5.0	0	2	180	0.00	1025.063	0	0.000	0
20070921 02:10	6.7	6.7	6.7	88	4.9	0	5	180	0.00	1025.063	0	0.000	0
20070921 02:15	6.7	6.7	6.7	88	4.9	0	3	180	0.00	1025.097	0	0.000	0
20070921 02:20	6.7	6.7	6.7	88	4.8	0	3	180	0.00	1025.063	0	0.000	0
20070921 02:25	6.7	6.7	6.7	88	4.8	0	3	180	0.00	1025.029	0	0.000	0
20070921 02:30	6.7	6.7	6.7	88	4.8	0	2	180	0.00	1024.995	0	0.000	0
20070921 02:35	6.7	6.7	6.7	88	4.8	0	3	180	0.00	1024.995	0	0.000	0
20070921 02:40	6.6	6.6	6.6	88	4.8	2	5	180	0.00	1025.063	0	0.000	0
20070921 02:45	6.6	6.6	6.6	88	4.8	2	5	180	0.00	1025.063	0	0.000	0
20070921 02:50	6.6	6.6	6.6	88	4.7	2	6	180	0.00	1025.029	0	0.000	0
20070921 02:55	6.6	6.6	6.6	88	4.7	0	5	180	0.00	1024.995	0	0.000	0
20070921 03:00	6.5	6.5	6.5	88	4.7	0	3	180	0.00	1024.961	0	0.000	0
20070921 03:05	6.4	6.4	6.4	88	4.6	0	5	180	0.00	1024.859	0	0.000	0
20070921 03:10	6.4	6.4	6.4	88	4.6	0	3	180	0.00	1024.995	0	0.000	0
20070921 03:15	6.4	6.4	6.4	88	4.5	0	0	180	0.00	1025.063	0	0.000	0
20070921 03:20	6.3	6.3	6.3	88	4.5	0	0	180	0.00	1024.995	0	0.000	0
20070921 03:25	6.2	6.2	6.2	89	4.5	0	0	180	0.00	1025.063	0	0.000	0
20070921 03:30	6.2	6.2	6.2	89	4.5	0	0	180	0.00	1025.130	0	0.000	0
20070921 03:35	6.1	6.1	6.1	89	4.4	0	2	180	0.00	1025.130	0	0.000	0
20070921 03:40	6.0	6.0	6.0	89	4.3	0	0	180	0.00	1025.130	0	0.000	0
20070921 03:45	5.9	5.9	5.9	89	4.3	0	0	180	0.00	1025.198	0	0.000	0
20070921 03:50	5.8	5.8	5.8	89	4.2	0	0	180	0.00	1025.266	0	0.000	0
20070921 03:55	5.8	5.8	5.8	90	4.3	0	0	180	0.00	1025.300	0	0.000	0
20070921 04:00	5.7	5.7	5.7	90	4.2	0	0	180	0.00	1025.401	0	0.000	0
20070921 04:05	5.7	5.7	5.7	90	4.2	0	0	180	0.00	1025.367	0	0.000	0
20070921 04:10	5.6	5.6	5.6	90	4.1	0	0	180	0.00	1025.401	0	0.000	0
20070921 04:15	5.6	5.6	5.6	90	4.0	0	0	180	0.00	1025.469	0	0.000	0
20070921 04:20	5.5	5.5	5.5	91	4.1	0	2	180	0.00	1025.435	0	0.000	0
20070921 04:25	5.5	5.5	5.5	91	4.1	0	2	180	0.00	1025.435	0	0.000	0
20070921 04:30	5.6	5.6	5.6	91	4.2	0	0	180	0.00	1025.469	0	0.000	0
20070921 04:35	5.6	5.6	5.6	91	4.3	0	2	180	0.00	1025.300	0	0.000	0
20070921 04:40	5.7	5.7	5.7	91	4.3	0	3	180	0.00	1025.401	0	0.000	0
20070921 04:45	5.6	5.6	5.6	90	4.1	0	0	180	0.00	1025.300	0	0.000	0
20070921 04:50	5.6	5.6	5.6	91	4.3	0	3	180	0.00	1025.401	0	0.000	0
20070921 04:55	5.6	5.6	5.6	91	4.3	0	3	180	0.00	1025.435	0	0.000	0
20070921 05:00	5.6	5.6	5.6	90	4.0	0	0	180	0.00	1025.435	0	0.000	0
20070921 05:05	5.6	5.6	5.6	91	4.2	0	2	180	0.00	1025.571	0	0.000	0
20070921 05:10	5.5	5.5	5.5	90	4.0	0	0	180	0.00	1025.604	0	0.000	0
20070921 05:15	5.4	5.4	5.4	90	3.9	0	0	180	0.00	1025.604	0	0.000	0
20070921 05:20	5.4	5.4	5.4	90	3.9	0	0	180	0.00	1025.706	0	0.000	0
20070921 05:25	5.3	5.3	5.3	91	4.0	0	0	180	0.00	1025.571	0	0.000	0
20070921 05:30	5.3	5.3	5.3	91	4.0	0	2	180	0.00	1025.571	0	0.000	0
20070921 05:35	5.3	5.3	5.3	91	4.0	0	2	180	0.00	1025.604	0	0.000	0
20070921 05:40	5.3	5.3	5.3	91	4.0	0	2	180	0.00	1025.604	0	0.000	0
20070921 05:45	5.3	5.3	5.3	91	4.0	0	0	180	0.00	1025.638	0	0.000	0
20070921 05:50	5.3	5.3	5.3	91	3.9	0	0	180	0.00	1025.604	0	0.000	0
20070921 05:55	5.2	5.2	5.2	91	3.9	0	0	180	0.00	1025.638	0	0.000	0
20070921 06:00	5.3	5.3	5.3	91	3.9	0	2	180	0.00	1025.638	0	0.000	0
20070921 06:05	5.3	5.3	5.3	91	3.9	0	2	180	0.00	1025.740	0	0.000	0
20070921 06:10	5.3	5.3	5.3	91	3.9	0	3	180	0.00	1025.774	0	0.000	0
20070921 06:15	5.3	5.3	5.3	91	3.9	0	2	180	0.00	1025.842	0	0.000	0
20070921 06:20	5.3	5.3	5.3	91	3.9	0	2	180	0.00	1025.808	0	0.000	0
20070921 06:25	5.2	5.2	5.2	91	3.9	0	0	180	0.00	1025.909	0	0.000	0
20070921 06:30	5.2	5.2	5.2	91	3.8	0	0	180	0.00	1025.909	0	0.000	0
20070921 06:35	5.2	5.2	5.2	91	3.8	0	2	180	0.00	1025.909	0	0.000	0
20070921 06:40	5.2	5.2	5.2	91	3.8	0	2	180	0.00	1025.909	0	0.000	0
20070921 06:45	5.2	5.2	5.2	91	3.9	0	2	180	0.00	1025.909	0	0.000	0
20070921 06:50	5.3	5.3	5.3	91	4.0	0	2	180	0.00	1025.909	0	0.000	0
20070921 06:55	5.4	5.4	5.4	91	4.0	0	3	180	0.00	1025.909	0	0.000	0
20070921 07:00	5.4	5.4	5.4	91	4.1	0	3	180	0.00	1025.943	0	0.000	0
20070921 07:05	5.4	5.4	5.4	91	4.1	0	3	180	0.00	1026.045	3	0.000	0
20070921 07:10	5.4	5.4	5.4	91	4.1	0	3	180	0.00	1026.045	6	0.000	0
20070921 07:15	5.4	5.4	5.4	91	4.1	0	3	180	0.00	1026.045	9	0.000	0
20070921 07:20	5.5	5.5	5.5	91	4.1	0	2	180	0.00	1026.011	11	0.000	0
20070921 07:25	5.6	5.6	5.6	91	4.2	0	2	180	0.00	1026.045	13	0.000	0
20070921 07:30	5.6	5.6	5.6	91	4.3	0	3	180	0.00	1025.977	15	0.000	0
20070921 07:35	5.7	5.7	5.7	91	4.3	0	2	180	0.00	1026.045	17	0.000	0
20070921 07:40	5.7	5.7	5.7	91	4.3	0	2	180	0.00	1026.045	18	0.000	0
20070921 07:45	5.7	5.7	5.7	91	4.4	0	3	180	0.00	1026.079	19	0.000	0
20070921 07:50	5.9	5.9	5.9	91	4.5	0	2	180	0.00	1026.045	21	0.000	0
20070921 07:55	6.1	6.1	6.1	91	4.7	0	3	180	0.00	1026.079	23	0.000	0
20070921 08:00	6.2	6.2	6.2	91	4.9	0	2	180	0.00	1026.079	25	0.000	0
20070921 08:05	6.4	6.4	6.4	91	5.0	0	2	180	0.00	1026.248	26	0.000	0
20070921 08:10	6.6	6.6	6.6	91	5.2	0	3	180	0.00	1026.282	27	0.000	0
20070921 08:15	6.8	6.8	6.8	90	5.3	0	2	180	0.00	1026.282	44	0.000	0
20070921 08:20	6.9	6.9	6.9	90	5.4	0	2	180	0.00	1026.180	31	0.000	0
20070921 08:25	7.2	7.2	7.2	90	5.7	0	2	180	0.00	1026.146	30	0.000	0
20070921 08:30	7.4	7.4	7.4	89	5.7	0	6	180	0.00	1026.180	32	0.000	0
20070921 08:35	7.7	7.7	7.7	88	5.9	0	5	180	0.00	1026.180	32	0.000	0
20070921 08:40	7.9	7.9	7.9	87	5.9	0	5	180	0.00	1026.113	33	0.000	0
20070921 08:45	8.2	8.2	8.2	86	6.0	0	5	180	0.00	1026.045	33	0.000	0
20070921 08:50	8.3	8.3	8.3	87	6.3	0	5	180	0.00	1026.045	35	0.000	0
20070921 08:55	8.6	8.6	8.6	86	6.3	0	3	180	0.00	1025.943	35	0.000	0
20070921 09:00	8.8	8.8	8.8	86	6.6	0	5	180	0.00	1025.943	36	0.020	0
20070921 09:05	9.0	9.0	9.0	85	6.6	0	2	180	0.00	1026.113	37	0.000	0
20070921 09:10	9.2	9.2	9.2	85	6.8	0	3	180	0.00	1025.943	37	0.000	0
20070921 09:15	9.4	9.4	9.4	84	6.8	0	3	180	0.00	1025.943	38	0.000	0
20070921 09:20	9.6	9.6	9.6	84	7.0	0	5	180	0.00	1025.909	39	0.000	0
20070921 09:25	9.7	9.7	9.7	84	7.1	0	2	180	0.00	1025.943	39	0.000	0
20070921 09:30	9.8	9.8	9.8	84	7.3	2	3	180	0.00	1025.977	39	0.000	0
20070921 09:35	10.1	10.1	10.1	81	6.9	2	3	180	0.00	1025.977	39	0.000	0
20070921 09:40	10.3	10.3	10.3	81	7.2	0	3	180	0.00	1025.842	40	0.000	0
20070921 09:45	10.5	10.5	10.5	81	7.4	0	3	180	0.00	1025.909	40	0.000	0
20070921 09:50	10.7	10.7	10.7	81	7.6	0	2	180	0.00	1025.909	40	0.000	0
20070921 09:55	11.0	11.0	11.0	80	7.7	0	2	180	0.00	1025.875	40	0.000	0
20070921 10:00	11.3	11.3	11.3	81	8.1	2	6	180	0.00	1025.808	41	0.020	0
20070921 10:05	11.5	11.5	11.5	80	8.2	2	5	180	0.00	1025.740	42	0.000	0
20070921 10:10	11.7	11.7	11.7	79	8.2	2	6	180	0.00	1025.774	42	0.000	0
20070921 10:15	12.0	12.0	12.0	78	8.3	0	5	180	0.00	1025.740	42	0.000	0
20070921 10:20	12.3	12.3	12.3	77	8.4	2	3	180	0.00	1025.842	42	0.000	0
20070921 10:25	12.5	12.5	12.5	74	8.0	3	6	157	0.00	1025.875	42	0.000	0
20070921 10:30	12.7	12.7	12.7	74	8.2	2	6	157	0.00	1025.774	42	0.000	0
20070921 10:35	12.9	12.9	12.9	74	8.4	2	5	157	0.00	1025.774	43	0.000	0
20070921 10:40	13.1	13.1	13.1	73	8.4	0	2	157	0.00	1025.740	44	0.000	0
20070921 10:45	13.3	13.3	13.3	69	7.7	0	3	157	0.00	1025.672	44	0.000	0
20070921 10:50	13.4	13.4	13.4	72	8.5	0	3	157	0.00	1025.638	45	0.000	0
20070921 10:55	13.7	13.7	13.7	69	8.1	3	8	157	0.00	1025.571	46	0.000	0
20070921 11:00	13.9	13.9	13.9	69	8.3	3	6	135	0.00	1025.537	46	0.020	0
20070921 11:05	14.2	14.2	14.2	68	8.3	3	10	112	0.00	1025.638	46	0.000	0
20070921 11:10	14.3	14.3	14.3	68	8.5	0	5	135	0.00	1025.469	47	0.000	0
20070921 11:15	14.6	14.6	14.6	68	8.7	2	6	135	0.00	1025.469	49	0.000	1
20070921 11:20	14.8	14.8	14.8	66	8.5	2	6	157	0.00	1025.435	553	0.000	2
20070921 11:25	15.0	15.0	15.0	66	8.7	3	11	112	0.00	1025.367	566	0.000	3
20070921 11:30	15.4	15.4	15.4	63	8.4	2	6	157	0.00	1025.232	575	0.000	3
20070921 11:35	15.7	15.7	15.7	62	8.5	2	5	157	0.00	1025.266	582	0.000	3
20070921 11:40	15.9	15.9	15.9	62	8.7	2	6	157	0.00	1025.232	589	0.000	3
20070921 11:45	16.2	16.2	16.2	60	8.4	3	8	157	0.00	1025.130	594	0.000	4
20070921 11:50	16.3	16.3	16.3	62	9.0	2	8	135	0.00	1025.063	601	0.000	4
20070921 11:55	16.4	16.4	16.4	58	8.2	5	11	135	0.00	1024.859	607	0.000	4
20070921 12:00	16.5	16.5	16.5	59	8.5	2	8	135	0.00	1024.826	611	0.200	4
20070921 12:05	16.7	16.7	16.7	59	8.6	5	10	135	0.00	1024.961	615	0.000	4
20070921 12:10	16.9	16.9	16.9	59	8.8	2	6	157	0.00	1024.792	620	0.000	4
20070921 12:15	17.0	17.0	17.0	58	8.7	0	5	135	0.00	1024.690	623	0.000	4
20070921 12:20	17.3	17.3	17.3	58	8.9	2	8	180	0.00	1024.589	627	0.000	4
20070921 12:25	17.2	17.2	17.2	55	8.1	3	8	135	0.00	1024.656	632	0.000	4
20070921 12:30	17.4	17.4	17.4	54	8.0	5	10	112	0.00	1024.623	634	0.000	4
20070921 12:35	17.6	17.6	17.6	54	8.1	2	5	202	0.00	1024.623	638	0.000	4
20070921 12:40	17.6	17.6	17.6	54	8.2	5	8	67	0.00	1024.555	641	0.000	4
20070921 12:45	17.9	17.9	17.9	54	8.4	2	6	157	0.00	1024.487	642	0.000	4
20070921 12:50	18.1	18.1	18.1	53	8.4	3	8	135	0.00	1024.284	642	0.000	4
20070921 12:55	18.3	18.3	18.3	53	8.5	2	6	135	0.00	1024.284	644	0.000	4
20070921 13:00	18.3	18.3	18.3	52	8.3	5	10	157	0.00	1024.250	644	0.280	4
20070921 13:05	18.2	18.2	18.2	52	8.1	3	10	45	0.00	1024.352	647	0.000	4
20070921 13:10	18.2	18.2	18.2	50	7.6	3	6	90	0.00	1024.284	645	0.000	4
20070921 13:15	18.3	18.3	18.3	51	8.0	3	8	135	0.00	1024.250	643	0.000	4
20070921 13:20	18.3	18.3	18.3	51	8.0	3	8	45	0.00	1024.182	644	0.000	4
20070921 13:25	18.4	18.4	18.4	50	7.8	3	18	135	0.00	1024.250	644	0.000	4
20070921 13:30	18.5	18.5	18.5	48	7.3	2	8	135	0.00	1024.081	630	0.000	4
20070921 13:35	18.8	18.8	18.8	50	8.1	2	6	157	0.00	1023.911	641	0.000	4
20070921 13:40	19.1	19.1	19.1	51	8.7	0	3	157	0.00	1023.911	637	0.000	4
20070921 13:45	19.1	19.1	19.1	50	8.4	3	10	135	0.00	1023.844	636	0.000	4
20070921 13:50	18.9	18.9	18.9	50	8.2	5	10	67	0.00	1023.742	635	0.000	4
20070921 13:55	18.8	18.8	18.8	52	8.8	3	8	90	0.00	1023.640	631	0.000	4
20070921 14:00	18.9	18.9	18.9	51	8.6	3	6	90	0.00	1023.674	625	0.300	4
20070921 14:05	19.1	19.1	19.1	52	9.0	2	5	157	0.00	1023.607	624	0.000	4
20070921 14:10	19.3	19.3	19.3	48	8.0	3	6	112	0.00	1023.573	621	0.000	4
20070921 14:15	19.4	19.4	19.4	50	8.7	3	6	90	0.00	1023.505	615	0.000	4
20070921 14:20	19.3	19.3	19.3	47	7.7	3	8	45	0.00	1023.539	608	0.000	4
20070921 14:25	19.3	19.3	19.3	48	8.0	2	6	67	0.00	1023.471	606	0.000	4
20070921 14:30	19.5	19.5	19.5	46	7.6	3	8	135	0.00	1023.437	602	0.000	4
20070921 14:35	19.6	19.6	19.6	46	7.7	2	5	90	0.00	1023.336	595	0.000	4
20070921 14:40	19.7	19.7	19.7	46	7.7	3	8	67	0.00	1023.234	589	0.000	3
20070921 14:45	19.9	19.9	19.9	46	8.0	2	6	112	0.00	1023.099	585	0.000	3
20070921 14:50	20.2	20.2	20.2	44	7.6	2	8	157	0.00	1023.031	577	0.000	3
20070921 14:55	20.4	20.4	20.4	43	7.4	3	8	90	0.00	1022.997	571	0.000	3
20070921 15:00	20.4	20.4	20.4	46	8.4	3	10	135	0.00	1022.963	564	0.280	3
20070921 15:05	20.4	20.4	20.4	47	8.7	3	8	45	0.00	1023.031	555	0.000	3
20070921 15:10	20.4	20.4	20.4	45	8.1	3	10	135	0.00	1022.895	543	0.000	3
20070921 15:15	20.4	20.4	20.4	47	8.7	3	8	112	0.00	1022.828	538	0.000	3
20070921 15:20	20.3	20.3	20.3	48	8.9	3	10	112	0.00	1022.760	529	0.000	3
20070921 15:25	20.2	20.2	20.2	48	8.8	3	6	90	0.00	1022.658	516	0.000	3
20070921 15:30	20.2	20.2	20.2	47	8.5	2	5	90	0.00	1022.658	511	0.000	2
20070921 15:35	20.3	20.3	20.3	47	8.6	3	8	135	0.00	1022.591	475	0.000	2
20070921 15:40	20.3	20.3	20.3	48	9.0	3	5	90	0.00	1022.591	58	0.000	1
20070921 15:45	20.3	20.3	20.3	47	8.6	3	8	135	0.00	1022.557	63	0.000	0
20070921 15:50	20.3	20.3	20.3	46	8.3	2	6	67	0.00	1022.489	47	0.000	0
20070921 15:55	20.4	20.4	20.4	47	8.7	5	8	90	0.00	1022.387	63	0.000	1
20070921 16:00	20.3	20.3	20.3	48	8.9	3	6	90	0.00	1022.320	48	0.180	0
20070921 16:05	20.3	20.3	20.3	47	8.6	5	8	67	0.00	1022.286	45	0.000	0
20070921 16:10	20.2	20.2	20.2	49	9.1	5	10	67	0.00	1022.286	44	0.000	0
20070921 16:15	20.2	20.2	20.2	49	9.1	3	11	112	0.00	1022.184	45	0.000	0
20070921 16:20	20.1	20.1	20.1	50	9.4	3	8	67	0.00	1022.083	44	0.000	0
20070921 16:25	20.1	20.1	20.1	50	9.4	3	10	90	0.00	1022.049	44	0.000	0
20070921 16:30	20.0	20.0	20.0	49	9.0	5	11	67	0.00	1022.083	47	0.000	0
20070921 16:35	20.1	20.1	20.1	48	8.7	6	11	135	0.00	1022.049	47	0.000	0
20070921 16:40	20.1	20.1	20.1	49	9.1	6	13	112	0.00	1022.015	55	0.000	0
20070921 16:45	20.1	20.1	20.1	48	8.8	3	10	135	0.00	1022.015	44	0.000	0
20070921 16:50	20.0	20.0	20.0	48	8.6	3	10	112	0.00	1021.913	42	0.000	0
20070921 16:55	20.0	20.0	20.0	48	8.6	5	13	112	0.00	1021.947	42	0.000	0
20070921 17:00	19.9	19.9	19.9	49	8.9	5	8	135	0.00	1021.880	44	0.060	0
20070921 17:05	19.9	19.9	19.9	48	8.6	3	11	135	0.00	1021.880	42	0.000	0
20070921 17:10	19.9	19.9	19.9	48	8.5	3	8	135	0.00	1021.913	42	0.000	0
20070921 17:15	19.8	19.8	19.8	49	8.8	3	10	135	0.00	1021.812	40	0.000	0
20070921 17:20	19.8	19.8	19.8	51	9.3	5	11	135	0.00	1021.880	46	0.000	0
20070921 17:25	19.7	19.7	19.7	49	8.7	5	10	112	0.00	1021.812	45	0.000	0
20070921 17:30	19.6	19.6	19.6	49	8.6	5	8	90	0.00	1021.913	41	0.000	0
20070921 17:35	19.5	19.5	19.5	50	8.8	5	8	90	0.00	1021.913	37	0.000	0
20070921 17:40	19.4	19.4	19.4	51	9.0	3	8	67	0.00	1021.812	36	0.000	0
20070921 17:45	19.3	19.3	19.3	53	9.5	6	10	135	0.00	1021.812	42	0.000	0
20070921 17:50	19.3	19.3	19.3	52	9.2	5	11	112	0.00	1021.846	46	0.000	0
20070921 17:55	19.1	19.1	19.1	53	9.3	5	14	135	0.00	1021.744	50	0.000	0
20070921 18:00	18.9	18.9	18.9	52	8.9	5	10	135	0.00	1021.710	33	0.040	0
20070921 18:05	18.8	18.8	18.8	54	9.3	5	11	135	0.00	1021.812	34	0.000	0
20070921 18:10	18.7	18.7	18.7	53	8.9	5	14	135	0.00	1021.812	58	0.000	0
20070921 18:15	18.7	18.7	18.7	54	9.2	3	11	135	0.00	1021.710	67	0.000	0
20070921 18:20	18.4	18.4	18.4	55	9.2	3	8	135	0.00	1021.744	49	0.000	0
20070921 18:25	18.3	18.3	18.3	56	9.3	2	6	135	0.00	1021.846	39	0.000	0
20070921 18:30	18.1	18.1	18.1	56	9.2	2	5	135	0.00	1021.947	32	0.000	0
20070921 18:35	17.9	17.9	17.9	57	9.2	2	6	135	0.00	1021.947	22	0.000	0
20070921 18:40	17.7	17.7	17.7	58	9.3	2	5	135	0.00	1021.947	21	0.000	0
20070921 18:45	17.4	17.4	17.4	60	9.6	2	5	135	0.00	1022.015	18	0.000	0
20070921 18:50	17.2	17.2	17.2	61	9.6	0	2	135	0.00	1022.150	15	0.000	0
20070921 18:55	17.0	17.0	17.0	63	9.9	0	2	135	0.00	1022.218	12	0.000	0
20070921 19:00	16.8	16.8	16.8	65	10.2	0	2	135	0.00	1022.252	10	0.020	0
20070921 19:05	16.6	16.6	16.6	64	9.7	0	0	135	0.00	1022.252	6	0.000	0
20070921 19:10	16.3	16.3	16.3	65	9.7	0	0	135	0.00	1022.387	0	0.000	0
20070921 19:15	16.0	16.0	16.0	67	9.9	0	0	135	0.00	1022.387	0	0.000	0
20070921 19:20	15.8	15.8	15.8	68	9.9	0	0	135	0.00	1022.523	0	0.000	0
20070921 19:25	15.4	15.4	15.4	69	9.8	0	0	135	0.00	1022.523	0	0.000	0
20070921 19:30	15.1	15.1	15.1	69	9.4	0	2	135	0.00	1022.523	0	0.000	0
20070921 19:35	15.0	15.0	15.0	70	9.6	0	2	135	0.00	1022.557	0	0.000	0
20070921 19:40	15.0	15.0	15.0	71	9.8	0	2	135	0.00	1022.591	0	0.000	0
20070921 19:45	14.8	14.8	14.8	70	9.4	0	0	135	0.00	1022.523	0	0.000	0
20070921 19:50	14.7	14.7	14.7	71	9.5	0	2	135	0.00	1022.523	0	0.000	0
20070921 19:55	14.6	14.6	14.6	72	9.6	0	0	135	0.00	1022.625	0	0.000	0
20070921 20:00	14.4	14.4	14.4	74	9.9	0	0	135	0.00	1022.591	0	0.000	0
20070921 20:05	14.2	14.2	14.2	73	9.4	0	2	135	0.00	1022.218	0	0.000	0
20070921 20:10	14.0	14.0	14.0	74	9.4	0	2	135	0.00	1022.387	0	0.000	0
20070921 20:15	13.9	13.9	13.9	75	9.5	0	2	135	0.00	1022.387	0	0.000	0
20070921 20:20	13.8	13.8	13.8	75	9.4	0	2	135	0.00	1022.421	0	0.000	0
20070921 20:25	13.7	13.7	13.7	76	9.5	0	3	135	0.00	1022.421	0	0.000	0
20070921 20:30	13.5	13.5	13.5	77	9.5	0	2	135	0.00	1022.455	0	0.000	0
20070921 20:35	13.3	13.3	13.3	78	9.5	0	0	135	0.00	1022.489	0	0.000	0
20070921 20:40	13.1	13.1	13.1	78	9.4	0	0	135	0.00	1022.523	0	0.000	0
20070921 20:45	12.9	12.9	12.9	79	9.4	0	0	135	0.00	1022.658	0	0.000	0
20070921 20:50	12.8	12.8	12.8	80	9.5	0	0	135	0.00	1022.557	0	0.000	0
20070921 20:55	12.7	12.7	12.7	79	9.1	0	0	135	0.00	1022.489	0	0.000	0
20070921 21:00	12.5	12.5	12.5	81	9.3	0	0	135	0.00	1022.455	0	0.020	0
20070921 21:05	12.4	12.4	12.4	81	9.2	0	0	135	0.00	1022.218	0	0.000	0
20070921 21:10	12.3	12.3	12.3	81	9.1	0	0	135	0.00	1022.320	0	0.000	0
20070921 21:15	12.2	12.2	12.2	82	9.2	0	0	135	0.00	1022.286	0	0.000	0
20070921 21:20	12.2	12.2	12.2	82	9.2	0	0	135	0.00	1022.252	0	0.000	0
20070921 21:25	12.1	12.1	12.1	83	9.3	0	0	135	0.00	1022.184	0	0.000	0
20070921 21:30	11.9	11.9	11.9	83	9.1	0	0	135	0.00	1022.184	0	0.000	0
20070921 21:35	11.9	11.9	11.9	84	9.3	0	0	135	0.00	1022.354	0	0.000	0
20070921 21:40	11.8	11.8	11.8	84	9.2	0	0	135	0.00	1022.320	0	0.000	0
20070921 21:45	11.8	11.8	11.8	84	9.2	0	0	135	0.00	1022.320	0	0.000	0
20070921 21:50	11.8	11.8	11.8	84	9.2	0	0	135	0.00	1022.354	0	0.000	0
20070921 21:55	11.7	11.7	11.7	84	9.1	0	0	135	0.00	1022.354	0	0.000	0
20070921 22:00	11.7	11.7	11.7	84	9.1	0	0	135	0.00	1022.354	0	0.000	0
20070921 22:05	11.7	11.7	11.7	84	9.1	0	0	135	0.00	1022.083	0	0.000	0
20070921 22:10	11.6	11.6	11.6	84	8.9	0	0	135	0.00	1022.083	0	0.000	0
20070921 22:15	11.4	11.4	11.4	84	8.8	0	0	135	0.00	1022.049	0	0.000	0
20070921 22:20	11.3	11.3	11.3	85	8.9	0	0	135	0.00	1022.218	0	0.000	0
20070921 22:25	11.2	11.2	11.2	85	8.7	0	0	135	0.00	1022.218	0	0.000	0
20070921 22:30	11.1	11.1	11.1	85	8.6	0	0	135	0.00	1022.252	0	0.000	0
20070921 22:35	10.9	10.9	10.9	86	8.7	0	0	135	0.00	1022.320	0	0.000	0
20070921 22:40	10.8	10.8	10.8	86	8.6	0	0	135	0.00	1022.320	0	0.000	0
20070921 22:45	10.8	10.8	10.8	86	8.5	0	0	135	0.00	1022.286	0	0.000	0
20070921 22:50	10.7	10.7	10.7	86	8.4	0	0	135	0.00	1022.320	0	0.000	0
20070921 22:55	10.6	10.6	10.6	87	8.5	0	0	135	0.00	1022.320	0	0.000	0
20070921 23:00	10.4	10.4	10.4	87	8.4	0	0	135	0.00	1022.286	0	0.000	0
20070921 23:05	10.5	10.5	10.5	88	8.6	0	0	135	0.00	1021.947	0	0.000	0
20070921 23:10	10.4	10.4	10.4	88	8.5	0	0	135	0.00	1022.083	0	0.000	0
20070921 23:15	10.4	10.4	10.4	88	8.5	0	3	135	0.00	1022.049	0	0.000	0
20070921 23:20	10.5	10.5	10.5	88	8.6	0	3	135	0.00	1021.981	0	0.000	0
20070921 23:25	10.4	10.4	10.4	88	8.5	0	0	135	0.00	1022.015	0	0.000	0
20070921 23:30	10.4	10.4	10.4	88	8.5	0	2	135	0.00	1022.083	0	0.000	0
20070921 23:35	10.4	10.4	10.4	88	8.5	0	2	135	0.00	1022.150	0	0.000	0
20070921 23:40	10.4	10.4	10.4	88	8.5	0	3	135	0.00	1022.150	0	0.000	0
20070921 23:45	10.3	10.3	10.3	88	8.4	0	2	135	0.00	1022.117	0	0.000	0
20070921 23:50	10.3	10.3	10.3	88	8.4	0	3	135	0.00	1022.218	0	0.000	0
20070921 23:55	10.3	10.3	10.3	89	8.5	0	2	135	0.00	1022.150	0	0.000	0
20070921 24:00	10.2	10.2	10.2	89	8.5	0	0	135	0.00	1022.117	0	0.000	0



Please note the license to use and transfer of this data:
http://creativecommons.org/licenses/by-nc-sa/3.0/deed.en

Bitte beachten sie die Lizenz zur Verwertung und Weitergabe der Daten:
http://creativecommons.org/licenses/by-nc-sa/3.0/deed.de

zurück zur Übersicht der Archivdaten (Monats und Tagesdaten)

Cookies helfen bei der Bereitstellung von Inhalten. Durch die Nutzung dieser Seiten erklärst du dich damit einverstanden, dass Cookies auf deinem Rechner gespeichert werden. Weitere Information